sensor_id;sensor_type;location;lat;lon;timestamp;pressure;altitude;pressure_sealevel;temperature;humidity
38900;BME280;24660;43.238;26.576;2022-12-05T00:00:58;100745.56;;;3.85;100.00
38900;BME280;24660;43.238;26.576;2022-12-05T00:03:25;100741.91;;;3.89;100.00
38900;BME280;24660;43.238;26.576;2022-12-05T00:05:50;100746.22;;;3.92;100.00
38900;BME280;24660;43.238;26.576;2022-12-05T00:08:16;100752.25;;;3.97;100.00
38900;BME280;24660;43.238;26.576;2022-12-05T00:10:42;100750.84;;;3.85;100.00
38900;BME280;24660;43.238;26.576;2022-12-05T00:13:07;100755.19;;;3.87;100.00
38900;BME280;24660;43.238;26.576;2022-12-05T00:15:37;100755.69;;;3.99;100.00
38900;BME280;24660;43.238;26.576;2022-12-05T00:18:03;100765.00;;;4.10;100.00
38900;BME280;24660;43.238;26.576;2022-12-05T00:20:28;100753.91;;;3.99;100.00
38900;BME280;24660;43.238;26.576;2022-12-05T00:22:53;100753.06;;;3.99;100.00
38900;BME280;24660;43.238;26.576;2022-12-05T00:25:19;100754.97;;;3.94;100.00
38900;BME280;24660;43.238;26.576;2022-12-05T00:27:44;100755.84;;;3.94;100.00
38900;BME280;24660;43.238;26.576;2022-12-05T00:30:09;100755.75;;;3.97;100.00
38900;BME280;24660;43.238;26.576;2022-12-05T00:32:35;100750.75;;;3.88;100.00
38900;BME280;24660;43.238;26.576;2022-12-05T00:35:00;100748.16;;;3.86;100.00
38900;BME280;24660;43.238;26.576;2022-12-05T00:37:25;100742.41;;;3.74;100.00
38900;BME280;24660;43.238;26.576;2022-12-05T00:39:51;100750.22;;;3.77;100.00
38900;BME280;24660;43.238;26.576;2022-12-05T00:42:16;100735.31;;;3.74;100.00
38900;BME280;24660;43.238;26.576;2022-12-05T00:44:41;100735.53;;;3.68;100.00
38900;BME280;24660;43.238;26.576;2022-12-05T00:47:07;100740.94;;;3.64;100.00
38900;BME280;24660;43.238;26.576;2022-12-05T00:49:32;100747.59;;;3.77;100.00
38900;BME280;24660;43.238;26.576;2022-12-05T00:51:57;100731.94;;;3.71;100.00
38900;BME280;24660;43.238;26.576;2022-12-05T00:54:23;100739.66;;;3.77;100.00
38900;BME280;24660;43.238;26.576;2022-12-05T00:56:48;100730.63;;;3.56;100.00
38900;BME280;24660;43.238;26.576;2022-12-05T00:59:17;100732.56;;;3.77;100.00
38900;BME280;24660;43.238;26.576;2022-12-05T01:01:43;100743.78;;;3.85;100.00
38900;BME280;24660;43.238;26.576;2022-12-05T01:04:10;100742.28;;;3.77;100.00
38900;BME280;24660;43.238;26.576;2022-12-05T01:06:35;100740.63;;;3.74;100.00
38900;BME280;24660;43.238;26.576;2022-12-05T01:09:01;100738.56;;;3.84;100.00
38900;BME280;24660;43.238;26.576;2022-12-05T01:11:27;100749.53;;;3.98;100.00
38900;BME280;24660;43.238;26.576;2022-12-05T01:13:52;100748.25;;;3.83;100.00
38900;BME280;24660;43.238;26.576;2022-12-05T01:16:27;100750.56;;;3.94;100.00
38900;BME280;24660;43.238;26.576;2022-12-05T01:18:53;100749.84;;;3.89;100.00
38900;BME280;24660;43.238;26.576;2022-12-05T01:21:19;100745.16;;;3.97;100.00
38900;BME280;24660;43.238;26.576;2022-12-05T01:23:45;100743.34;;;3.99;100.00
38900;BME280;24660;43.238;26.576;2022-12-05T01:26:11;100743.72;;;3.87;100.00
38900;BME280;24660;43.238;26.576;2022-12-05T01:28:37;100750.03;;;3.83;100.00
38900;BME280;24660;43.238;26.576;2022-12-05T01:31:03;100746.56;;;4.07;100.00
38900;BME280;24660;43.238;26.576;2022-12-05T01:33:29;100746.31;;;3.88;100.00
38900;BME280;24660;43.238;26.576;2022-12-05T01:35:55;100740.06;;;3.91;100.00
38900;BME280;24660;43.238;26.576;2022-12-05T01:38:20;100737.47;;;3.90;100.00
38900;BME280;24660;43.238;26.576;2022-12-05T01:40:45;100727.22;;;3.79;100.00
38900;BME280;24660;43.238;26.576;2022-12-05T01:43:15;100728.66;;;3.89;100.00
38900;BME280;24660;43.238;26.576;2022-12-05T01:45:41;100731.22;;;3.92;100.00
38900;BME280;24660;43.238;26.576;2022-12-05T01:48:12;100730.50;;;4.13;100.00
38900;BME280;24660;43.238;26.576;2022-12-05T01:50:39;100730.69;;;4.07;100.00
38900;BME280;24660;43.238;26.576;2022-12-05T01:53:04;100730.41;;;4.16;100.00
38900;BME280;24660;43.238;26.576;2022-12-05T01:55:30;100731.25;;;4.17;100.00
38900;BME280;24660;43.238;26.576;2022-12-05T01:57:56;100730.91;;;4.01;100.00
38900;BME280;24660;43.238;26.576;2022-12-05T02:00:22;100732.34;;;3.85;100.00
38900;BME280;24660;43.238;26.576;2022-12-05T02:02:48;100723.28;;;3.92;100.00
38900;BME280;24660;43.238;26.576;2022-12-05T02:07:56;100717.19;;;3.90;100.00
38900;BME280;24660;43.238;26.576;2022-12-05T02:10:22;100714.63;;;3.87;100.00
38900;BME280;24660;43.238;26.576;2022-12-05T02:12:48;100717.75;;;4.00;100.00
38900;BME280;24660;43.238;26.576;2022-12-05T02:17:43;100717.84;;;3.97;100.00
38900;BME280;24660;43.238;26.576;2022-12-05T02:30:45;100710.22;;;3.87;100.00
38900;BME280;24660;43.238;26.576;2022-12-05T02:33:20;100704.72;;;3.67;100.00
38900;BME280;24660;43.238;26.576;2022-12-05T02:41:09;100698.41;;;3.98;100.00
38900;BME280;24660;43.238;26.576;2022-12-05T02:43:29;100698.66;;;3.90;100.00
38900;BME280;24660;43.238;26.576;2022-12-05T02:45:57;100693.81;;;3.76;100.00
38900;BME280;24660;43.238;26.576;2022-12-05T02:48:25;100700.59;;;3.85;100.00
38900;BME280;24660;43.238;26.576;2022-12-05T02:50:51;100697.84;;;3.88;100.00
38900;BME280;24660;43.238;26.576;2022-12-05T02:53:18;100696.75;;;3.94;100.00
38900;BME280;24660;43.238;26.576;2022-12-05T02:55:45;100702.34;;;3.86;100.00
38900;BME280;24660;43.238;26.576;2022-12-05T02:58:15;100691.06;;;3.79;100.00
38900;BME280;24660;43.238;26.576;2022-12-05T03:00:43;100695.16;;;3.90;100.00
38900;BME280;24660;43.238;26.576;2022-12-05T03:03:11;100704.91;;;3.87;100.00
38900;BME280;24660;43.238;26.576;2022-12-05T03:08:20;100690.25;;;3.77;100.00
38900;BME280;24660;43.238;26.576;2022-12-05T03:10:46;100690.25;;;3.77;100.00
38900;BME280;24660;43.238;26.576;2022-12-05T03:13:15;100694.81;;;3.74;100.00
38900;BME280;24660;43.238;26.576;2022-12-05T03:15:46;100698.66;;;3.64;100.00
38900;BME280;24660;43.238;26.576;2022-12-05T03:18:14;100691.50;;;3.67;100.00
38900;BME280;24660;43.238;26.576;2022-12-05T03:20:44;100695.78;;;3.71;100.00
38900;BME280;24660;43.238;26.576;2022-12-05T03:23:12;100696.81;;;3.66;100.00
38900;BME280;24660;43.238;26.576;2022-12-05T03:25:45;100701.91;;;3.72;100.00
38900;BME280;24660;43.238;26.576;2022-12-05T03:28:19;100703.19;;;3.86;100.00
38900;BME280;24660;43.238;26.576;2022-12-05T03:30:47;100703.66;;;3.73;100.00
38900;BME280;24660;43.238;26.576;2022-12-05T03:33:18;100702.53;;;3.53;100.00
38900;BME280;24660;43.238;26.576;2022-12-05T03:38:26;100703.88;;;3.65;100.00
38900;BME280;24660;43.238;26.576;2022-12-05T03:40:55;100713.47;;;3.69;100.00
38900;BME280;24660;43.238;26.576;2022-12-05T03:43:34;100713.81;;;3.85;100.00
38900;BME280;24660;43.238;26.576;2022-12-05T03:51:26;100703.53;;;3.76;100.00
38900;BME280;24660;43.238;26.576;2022-12-05T03:56:19;100704.28;;;3.79;100.00
38900;BME280;24660;43.238;26.576;2022-12-05T03:58:47;100702.38;;;3.84;100.00
38900;BME280;24660;43.238;26.576;2022-12-05T04:01:15;100700.78;;;3.79;100.00
38900;BME280;24660;43.238;26.576;2022-12-05T04:03:43;100698.94;;;3.82;100.00
38900;BME280;24660;43.238;26.576;2022-12-05T04:06:16;100698.53;;;3.68;100.00
38900;BME280;24660;43.238;26.576;2022-12-05T04:08:47;100703.75;;;3.70;100.00
38900;BME280;24660;43.238;26.576;2022-12-05T04:11:18;100702.09;;;3.66;100.00
38900;BME280;24660;43.238;26.576;2022-12-05T04:13:46;100702.09;;;3.66;100.00
38900;BME280;24660;43.238;26.576;2022-12-05T04:16:16;100695.00;;;3.68;100.00
38900;BME280;24660;43.238;26.576;2022-12-05T04:19:00;100702.22;;;3.63;100.00
38900;BME280;24660;43.238;26.576;2022-12-05T04:21:29;100711.06;;;3.62;100.00
38900;BME280;24660;43.238;26.576;2022-12-05T04:24:05;100703.31;;;3.83;100.00
38900;BME280;24660;43.238;26.576;2022-12-05T04:26:49;100704.63;;;3.70;100.00
38900;BME280;24660;43.238;26.576;2022-12-05T04:29:27;100703.81;;;3.68;100.00
38900;BME280;24660;43.238;26.576;2022-12-05T04:31:55;100714.56;;;3.62;100.00
38900;BME280;24660;43.238;26.576;2022-12-05T04:34:22;100712.56;;;3.70;100.00
38900;BME280;24660;43.238;26.576;2022-12-05T04:36:50;100711.41;;;3.77;100.00
38900;BME280;24660;43.238;26.576;2022-12-05T04:39:21;100715.19;;;3.70;100.00
38900;BME280;24660;43.238;26.576;2022-12-05T04:41:49;100708.03;;;3.74;100.00
38900;BME280;24660;43.238;26.576;2022-12-05T04:44:16;100708.28;;;3.66;100.00
38900;BME280;24660;43.238;26.576;2022-12-05T04:46:43;100702.72;;;3.74;100.00
38900;BME280;24660;43.238;26.576;2022-12-05T04:49:10;100707.25;;;3.70;100.00
38900;BME280;24660;43.238;26.576;2022-12-05T04:51:36;100700.38;;;3.65;100.00
38900;BME280;24660;43.238;26.576;2022-12-05T04:54:04;100701.75;;;3.76;100.00
38900;BME280;24660;43.238;26.576;2022-12-05T04:56:34;100703.69;;;3.71;100.00
38900;BME280;24660;43.238;26.576;2022-12-05T04:59:02;100703.03;;;3.65;100.00
38900;BME280;24660;43.238;26.576;2022-12-05T05:01:31;100707.31;;;3.69;100.00
38900;BME280;24660;43.238;26.576;2022-12-05T05:04:01;100704.72;;;3.67;100.00
38900;BME280;24660;43.238;26.576;2022-12-05T05:06:31;100703.66;;;3.73;100.00
38900;BME280;24660;43.238;26.576;2022-12-05T05:08:56;100711.16;;;3.58;100.00
38900;BME280;24660;43.238;26.576;2022-12-05T05:11:24;100711.91;;;3.62;100.00
38900;BME280;24660;43.238;26.576;2022-12-05T05:13:50;100715.16;;;3.72;100.00
38900;BME280;24660;43.238;26.576;2022-12-05T05:16:17;100721.50;;;3.93;100.00
38900;BME280;24660;43.238;26.576;2022-12-05T05:18:44;100718.50;;;3.77;100.00
38900;BME280;24660;43.238;26.576;2022-12-05T05:23:50;100719.06;;;3.86;100.00
38900;BME280;24660;43.238;26.576;2022-12-05T05:26:15;100718.03;;;3.91;100.00
38900;BME280;24660;43.238;26.576;2022-12-05T05:28:41;100714.88;;;3.79;100.00
38900;BME280;24660;43.238;26.576;2022-12-05T05:31:07;100719.63;;;3.70;100.00
38900;BME280;24660;43.238;26.576;2022-12-05T05:33:33;100723.72;;;3.78;100.00
38900;BME280;24660;43.238;26.576;2022-12-05T05:36:02;100712.69;;;3.66;100.00
38900;BME280;24660;43.238;26.576;2022-12-05T05:38:28;100716.16;;;3.68;100.00
38900;BME280;24660;43.238;26.576;2022-12-05T05:40:53;100718.44;;;3.78;100.00
38900;BME280;24660;43.238;26.576;2022-12-05T05:43:18;100717.44;;;3.82;100.00
38900;BME280;24660;43.238;26.576;2022-12-05T05:45:44;100716.38;;;3.88;100.00
38900;BME280;24660;43.238;26.576;2022-12-05T05:48:09;100714.00;;;3.79;100.00
38900;BME280;24660;43.238;26.576;2022-12-05T05:50:35;100714.84;;;3.81;100.00
38900;BME280;24660;43.238;26.576;2022-12-05T05:53:00;100719.97;;;3.85;100.00
38900;BME280;24660;43.238;26.576;2022-12-05T05:55:25;100720.84;;;3.86;100.00
38900;BME280;24660;43.238;26.576;2022-12-05T05:57:51;100721.72;;;3.86;100.00
38900;BME280;24660;43.238;26.576;2022-12-05T06:00:16;100727.22;;;3.79;100.00
38900;BME280;24660;43.238;26.576;2022-12-05T06:02:43;100724.25;;;3.90;100.00
38900;BME280;24660;43.238;26.576;2022-12-05T06:05:08;100717.94;;;3.67;100.00
38900;BME280;24660;43.238;26.576;2022-12-05T06:07:34;100718.31;;;3.83;100.00
38900;BME280;24660;43.238;26.576;2022-12-05T06:09:59;100734.47;;;4.00;100.00
38900;BME280;24660;43.238;26.576;2022-12-05T06:12:27;100728.50;;;3.95;100.00
38900;BME280;24660;43.238;26.576;2022-12-05T06:14:52;100728.31;;;4.00;100.00
38900;BME280;24660;43.238;26.576;2022-12-05T06:17:18;100730.81;;;4.04;100.00
38900;BME280;24660;43.238;26.576;2022-12-05T06:19:43;100719.00;;;3.88;100.00
38900;BME280;24660;43.238;26.576;2022-12-05T06:22:11;100723.19;;;3.69;100.00
38900;BME280;24660;43.238;26.576;2022-12-05T06:24:37;100728.63;;;3.91;100.00
38900;BME280;24660;43.238;26.576;2022-12-05T06:27:02;100729.41;;;3.94;100.00
38900;BME280;24660;43.238;26.576;2022-12-05T06:29:27;100730.34;;;3.92;100.00
38900;BME280;24660;43.238;26.576;2022-12-05T06:31:53;100738.97;;;3.98;100.00
38900;BME280;24660;43.238;26.576;2022-12-05T06:34:18;100733.84;;;3.92;100.00
38900;BME280;24660;43.238;26.576;2022-12-05T06:36:43;100737.34;;;3.94;100.00
38900;BME280;24660;43.238;26.576;2022-12-05T06:39:18;100736.00;;;3.81;100.00
38900;BME280;24660;43.238;26.576;2022-12-05T06:41:43;100737.19;;;3.99;100.00
38900;BME280;24660;43.238;26.576;2022-12-05T06:44:08;100740.88;;;4.20;100.00
38900;BME280;24660;43.238;26.576;2022-12-05T06:46:34;100740.41;;;4.08;100.00
38900;BME280;24660;43.238;26.576;2022-12-05T06:49:00;100740.00;;;4.19;100.00
38900;BME280;24660;43.238;26.576;2022-12-05T06:51:25;100744.03;;;4.31;100.00
38900;BME280;24660;43.238;26.576;2022-12-05T06:53:51;100741.13;;;4.38;100.00
38900;BME280;24660;43.238;26.576;2022-12-05T06:56:17;100743.50;;;4.46;100.00
38900;BME280;24660;43.238;26.576;2022-12-05T06:58:44;100742.78;;;4.41;100.00
38900;BME280;24660;43.238;26.576;2022-12-05T07:01:11;100747.88;;;4.47;100.00
38900;BME280;24660;43.238;26.576;2022-12-05T07:03:55;100743.78;;;4.38;100.00
38900;BME280;24660;43.238;26.576;2022-12-05T07:06:20;100748.47;;;4.55;100.00
38900;BME280;24660;43.238;26.576;2022-12-05T07:08:46;100741.56;;;4.51;100.00
38900;BME280;24660;43.238;26.576;2022-12-05T07:11:11;100747.28;;;4.39;100.00
38900;BME280;24660;43.238;26.576;2022-12-05T07:13:36;100740.03;;;4.44;100.00
38900;BME280;24660;43.238;26.576;2022-12-05T07:16:02;100731.91;;;4.48;100.00
38900;BME280;24660;43.238;26.576;2022-12-05T07:18:30;100739.78;;;4.52;100.00
38900;BME280;24660;43.238;26.576;2022-12-05T07:20:57;100746.94;;;4.48;100.00
38900;BME280;24660;43.238;26.576;2022-12-05T07:23:22;100743.28;;;4.52;100.00
38900;BME280;24660;43.238;26.576;2022-12-05T07:25:48;100746.75;;;4.54;100.00
38900;BME280;24660;43.238;26.576;2022-12-05T07:28:13;100745.59;;;4.61;100.00
38900;BME280;24660;43.238;26.576;2022-12-05T07:30:38;100744.66;;;4.62;100.00
38900;BME280;24660;43.238;26.576;2022-12-05T07:33:04;100738.25;;;4.69;100.00
38900;BME280;24660;43.238;26.576;2022-12-05T07:35:29;100739.88;;;4.48;100.00
38900;BME280;24660;43.238;26.576;2022-12-05T07:37:54;100743.28;;;4.52;100.00
38900;BME280;24660;43.238;26.576;2022-12-05T07:40:19;100744.63;;;4.64;100.00
38900;BME280;24660;43.238;26.576;2022-12-05T07:42:47;100736.66;;;4.65;100.00
38900;BME280;24660;43.238;26.576;2022-12-05T07:45:12;100748.13;;;4.64;100.00
38900;BME280;24660;43.238;26.576;2022-12-05T07:47:37;100746.31;;;4.66;100.00
38900;BME280;24660;43.238;26.576;2022-12-05T07:50:03;100743.06;;;4.58;100.00
38900;BME280;24660;43.238;26.576;2022-12-05T07:52:28;100748.41;;;4.82;100.00
38900;BME280;24660;43.238;26.576;2022-12-05T07:54:53;100749.72;;;4.70;100.00
38900;BME280;24660;43.238;26.576;2022-12-05T07:57:19;100742.31;;;4.80;100.00
38900;BME280;24660;43.238;26.576;2022-12-05T07:59:44;100746.59;;;5.07;100.00
38900;BME280;24660;43.238;26.576;2022-12-05T08:02:09;100746.22;;;5.16;100.00
38900;BME280;24660;43.238;26.576;2022-12-05T08:04:35;100737.19;;;4.98;100.00
38900;BME280;24660;43.238;26.576;2022-12-05T08:07:03;100746.13;;;4.96;100.00
38900;BME280;24660;43.238;26.576;2022-12-05T08:09:29;100744.59;;;4.89;100.00
38900;BME280;24660;43.238;26.576;2022-12-05T08:11:54;100744.94;;;5.03;100.00
38900;BME280;24660;43.238;26.576;2022-12-05T08:14:19;100750.38;;;5.23;100.00
38900;BME280;24660;43.238;26.576;2022-12-05T08:16:45;100744.75;;;5.09;100.00
38900;BME280;24660;43.238;26.576;2022-12-05T08:19:14;100731.66;;;4.81;100.00
38900;BME280;24660;43.238;26.576;2022-12-05T08:21:42;100737.63;;;4.86;100.00
38900;BME280;24660;43.238;26.576;2022-12-05T08:24:07;100735.16;;;4.82;100.00
38900;BME280;24660;43.238;26.576;2022-12-05T08:26:33;100735.59;;;4.69;100.00
38900;BME280;24660;43.238;26.576;2022-12-05T08:29:00;100739.31;;;4.89;100.00
38900;BME280;24660;43.238;26.576;2022-12-05T08:31:27;100740.47;;;4.82;100.00
38900;BME280;24660;43.238;26.576;2022-12-05T08:33:56;100737.69;;;4.85;100.00
38900;BME280;24660;43.238;26.576;2022-12-05T08:36:28;100739.25;;;4.90;100.00
38900;BME280;24660;43.238;26.576;2022-12-05T08:38:55;100738.63;;;4.84;100.00
38900;BME280;24660;43.238;26.576;2022-12-05T08:41:24;100732.72;;;4.75;100.00
38900;BME280;24660;43.238;26.576;2022-12-05T08:43:52;100728.69;;;4.65;100.00
38900;BME280;24660;43.238;26.576;2022-12-05T08:46:18;100734.69;;;4.70;100.00
38900;BME280;24660;43.238;26.576;2022-12-05T08:48:43;100731.06;;;4.73;100.00
38900;BME280;24660;43.238;26.576;2022-12-05T08:51:09;100731.84;;;4.75;100.00
38900;BME280;24660;43.238;26.576;2022-12-05T08:53:35;100734.44;;;4.76;100.00
38900;BME280;24660;43.238;26.576;2022-12-05T08:56:03;100720.47;;;4.96;100.00
38900;BME280;24660;43.238;26.576;2022-12-05T08:58:28;100732.88;;;4.96;100.00
38900;BME280;24660;43.238;26.576;2022-12-05T09:00:54;100720.59;;;4.93;100.00
38900;BME280;24660;43.238;26.576;2022-12-05T09:03:19;100718.81;;;4.94;100.00
38900;BME280;24660;43.238;26.576;2022-12-05T09:05:47;100716.66;;;5.03;100.00
38900;BME280;24660;43.238;26.576;2022-12-05T09:08:15;100720.31;;;5.01;100.00
38900;BME280;24660;43.238;26.576;2022-12-05T09:10:40;100718.84;;;5.16;100.00
38900;BME280;24660;43.238;26.576;2022-12-05T09:25:07;100701.56;;;5.05;100.00
38900;BME280;24660;43.238;26.576;2022-12-05T09:27:33;100696.09;;;5.10;100.00
38900;BME280;24660;43.238;26.576;2022-12-05T09:29:58;100699.31;;;5.18;100.00
38900;BME280;24660;43.238;26.576;2022-12-05T09:32:24;100707.03;;;5.24;100.00
38900;BME280;24660;43.238;26.576;2022-12-05T09:34:49;100696.19;;;5.30;100.00
38900;BME280;24660;43.238;26.576;2022-12-05T09:37:14;100692.38;;;5.38;100.00
38900;BME280;24660;43.238;26.576;2022-12-05T09:39:41;100687.97;;;5.15;100.00
38900;BME280;24660;43.238;26.576;2022-12-05T09:50:14;100684.25;;;5.42;100.00
38900;BME280;24660;43.238;26.576;2022-12-05T09:52:43;100679.78;;;5.43;100.00
38900;BME280;24660;43.238;26.576;2022-12-05T09:55:13;100677.88;;;5.46;100.00
38900;BME280;24660;43.238;26.576;2022-12-05T09:57:42;100674.22;;;5.49;100.00
38900;BME280;24660;43.238;26.576;2022-12-05T10:00:10;100659.94;;;5.31;100.00
38900;BME280;24660;43.238;26.576;2022-12-05T10:02:40;100658.91;;;5.35;100.00
38900;BME280;24660;43.238;26.576;2022-12-05T10:07:55;100654.16;;;5.21;100.00
38900;BME280;24660;43.238;26.576;2022-12-05T10:10:28;100662.16;;;5.42;100.00
38900;BME280;24660;43.238;26.576;2022-12-05T10:15:41;100651.31;;;5.26;100.00
38900;BME280;24660;43.238;26.576;2022-12-05T10:20:34;100642.78;;;5.18;100.00
38900;BME280;24660;43.238;26.576;2022-12-05T10:23:03;100640.25;;;5.15;100.00
38900;BME280;24660;43.238;26.576;2022-12-05T10:25:30;100634.03;;;4.94;100.00
38900;BME280;24660;43.238;26.576;2022-12-05T10:28:01;100641.47;;;4.84;100.00
38900;BME280;24660;43.238;26.576;2022-12-05T10:30:29;100643.13;;;4.87;100.00
38900;BME280;24660;43.238;26.576;2022-12-05T10:32:56;100644.31;;;5.01;100.00
38900;BME280;24660;43.238;26.576;2022-12-05T10:37:48;100638.81;;;5.06;100.00
38900;BME280;24660;43.238;26.576;2022-12-05T10:40:15;100639.84;;;5.25;100.00
38900;BME280;24660;43.238;26.576;2022-12-05T10:42:40;100636.47;;;5.22;100.00
38900;BME280;24660;43.238;26.576;2022-12-05T10:45:12;100634.59;;;5.46;100.00
38900;BME280;24660;43.238;26.576;2022-12-05T10:47:37;100632.63;;;5.51;100.00
38900;BME280;24660;43.238;26.576;2022-12-05T10:50:04;100617.28;;;5.37;100.00
38900;BME280;24660;43.238;26.576;2022-12-05T10:52:33;100617.22;;;5.39;100.00
38900;BME280;24660;43.238;26.576;2022-12-05T10:55:00;100612.22;;;5.31;100.00
38900;BME280;24660;43.238;26.576;2022-12-05T10:57:27;100605.63;;;5.19;100.00
38900;BME280;24660;43.238;26.576;2022-12-05T10:59:54;100603.28;;;5.33;100.00
38900;BME280;24660;43.238;26.576;2022-12-05T11:02:25;100593.06;;;5.24;100.00
38900;BME280;24660;43.238;26.576;2022-12-05T11:04:52;100593.03;;;5.02;100.00
38900;BME280;24660;43.238;26.576;2022-12-05T11:07:22;100597.25;;;5.08;100.00
38900;BME280;24660;43.238;26.576;2022-12-05T11:09:48;100596.88;;;4.95;100.00
38900;BME280;24660;43.238;26.576;2022-12-05T11:12:16;100597.41;;;4.82;100.00
38900;BME280;24660;43.238;26.576;2022-12-05T11:17:24;100605.84;;;4.91;100.00
38900;BME280;24660;43.238;26.576;2022-12-05T11:19:50;100598.88;;;4.89;100.00
38900;BME280;24660;43.238;26.576;2022-12-05T11:22:16;100608.41;;;4.94;100.00
38900;BME280;24660;43.238;26.576;2022-12-05T11:24:41;100598.41;;;5.01;100.00
38900;BME280;24660;43.238;26.576;2022-12-05T11:32:20;100585.56;;;4.90;100.00
38900;BME280;24660;43.238;26.576;2022-12-05T11:37:13;100588.00;;;4.96;100.00
38900;BME280;24660;43.238;26.576;2022-12-05T11:39:40;100582.75;;;4.95;100.00
38900;BME280;24660;43.238;26.576;2022-12-05T11:44:38;100588.66;;;5.01;100.00
38900;BME280;24660;43.238;26.576;2022-12-05T11:57:19;100606.13;;;5.07;100.00
38900;BME280;24660;43.238;26.576;2022-12-05T12:10:22;100590.78;;;4.93;100.00
38900;BME280;24660;43.238;26.576;2022-12-05T12:13:05;100598.19;;;5.07;100.00
38900;BME280;24660;43.238;26.576;2022-12-05T12:15:38;100595.28;;;5.13;100.00
38900;BME280;24660;43.238;26.576;2022-12-05T12:18:23;100599.53;;;5.17;100.00
38900;BME280;24660;43.238;26.576;2022-12-05T12:21:07;100592.69;;;5.12;100.00
38900;BME280;24660;43.238;26.576;2022-12-05T12:23:44;100600.63;;;5.12;100.00
38900;BME280;24660;43.238;26.576;2022-12-05T12:26:13;100587.06;;;5.19;100.00
38900;BME280;24660;43.238;26.576;2022-12-05T12:31:14;100591.50;;;5.19;100.00
38900;BME280;24660;43.238;26.576;2022-12-05T12:38:38;100595.75;;;5.01;100.00
38900;BME280;24660;43.238;26.576;2022-12-05T12:41:13;100584.22;;;5.02;100.00
38900;BME280;24660;43.238;26.576;2022-12-05T12:43:45;100585.25;;;5.21;100.00
38900;BME280;24660;43.238;26.576;2022-12-05T12:46:23;100587.19;;;5.16;100.00
38900;BME280;24660;43.238;26.576;2022-12-05T12:51:38;100585.53;;;5.14;100.00
38900;BME280;24660;43.238;26.576;2022-12-05T12:54:10;100580.66;;;5.03;100.00
38900;BME280;24660;43.238;26.576;2022-12-05T12:56:40;100579.13;;;4.97;100.00
38900;BME280;24660;43.238;26.576;2022-12-05T13:06:56;100580.66;;;5.03;100.00
38900;BME280;24660;43.238;26.576;2022-12-05T13:09:31;100575.78;;;4.92;100.00
38900;BME280;24660;43.238;26.576;2022-12-05T13:11:59;100575.97;;;4.88;100.00
38900;BME280;24660;43.238;26.576;2022-12-05T13:14:26;100567.78;;;4.94;100.00
38900;BME280;24660;43.238;26.576;2022-12-05T13:16:53;100570.88;;;4.83;100.00
38900;BME280;24660;43.238;26.576;2022-12-05T13:19:23;100572.81;;;4.78;100.00
38900;BME280;24660;43.238;26.576;2022-12-05T13:21:49;100572.78;;;4.80;100.00
38900;BME280;24660;43.238;26.576;2022-12-05T13:24:15;100571.00;;;4.80;100.00
38900;BME280;24660;43.238;26.576;2022-12-05T13:26:44;100577.69;;;4.89;100.00
38900;BME280;24660;43.238;26.576;2022-12-05T13:29:13;100570.78;;;4.85;100.00
38900;BME280;24660;43.238;26.576;2022-12-05T13:31:43;100575.91;;;4.89;100.00
38900;BME280;24660;43.238;26.576;2022-12-05T13:36:50;100577.47;;;4.95;100.00
38900;BME280;24660;43.238;26.576;2022-12-05T13:39:30;100582.50;;;5.01;100.00
38900;BME280;24660;43.238;26.576;2022-12-05T13:42:18;100580.19;;;4.93;100.00
38900;BME280;24660;43.238;26.576;2022-12-05T13:47:19;100575.22;;;5.06;100.00
38900;BME280;24660;43.238;26.576;2022-12-05T13:49:54;100575.41;;;5.01;100.00
38900;BME280;24660;43.238;26.576;2022-12-05T13:52:22;100570.00;;;5.26;100.00
38900;BME280;24660;43.238;26.576;2022-12-05T13:54:57;100561.19;;;5.04;100.00
38900;BME280;24660;43.238;26.576;2022-12-05T14:07:40;100540.72;;;4.86;100.00
38900;BME280;24660;43.238;26.576;2022-12-05T14:10:06;100538.25;;;5.03;100.00
38900;BME280;24660;43.238;26.576;2022-12-05T14:18:09;100541.84;;;5.02;100.00
38900;BME280;24660;43.238;26.576;2022-12-05T14:20:46;100544.88;;;4.93;100.00
38900;BME280;24660;43.238;26.576;2022-12-05T14:25:43;100547.84;;;5.07;100.00
38900;BME280;24660;43.238;26.576;2022-12-05T14:31:12;100540.25;;;4.98;100.00
38900;BME280;24660;43.238;26.576;2022-12-05T14:33:40;100539.06;;;4.83;100.00
38900;BME280;24660;43.238;26.576;2022-12-05T14:36:06;100534.84;;;4.79;100.00
38900;BME280;24660;43.238;26.576;2022-12-05T14:38:33;100544.31;;;4.85;100.00
38900;BME280;24660;43.238;26.576;2022-12-05T14:43:41;100547.75;;;4.87;100.00
38900;BME280;24660;43.238;26.576;2022-12-05T14:46:13;100547.00;;;5.05;100.00
38900;BME280;24660;43.238;26.576;2022-12-05T14:48:40;100544.88;;;4.93;100.00
38900;BME280;24660;43.238;26.576;2022-12-05T14:53:49;100541.97;;;5.21;100.00
38900;BME280;24660;43.238;26.576;2022-12-05T14:56:16;100539.69;;;5.12;100.00
38900;BME280;24660;43.238;26.576;2022-12-05T15:06:31;100529.47;;;4.81;100.00
38900;BME280;24660;43.238;26.576;2022-12-05T15:08:57;100535.38;;;4.87;100.00
38900;BME280;24660;43.238;26.576;2022-12-05T15:11:28;100535.25;;;4.90;100.00
38900;BME280;24660;43.238;26.576;2022-12-05T15:13:58;100528.53;;;4.82;100.00
38900;BME280;24660;43.238;26.576;2022-12-05T15:16:27;100532.13;;;4.81;100.00
38900;BME280;24660;43.238;26.576;2022-12-05T15:18:56;100536.66;;;4.77;100.00
38900;BME280;24660;43.238;26.576;2022-12-05T15:21:32;100540.59;;;4.89;100.00